createdAt,value
2023-03-16T00:02:22.174Z,8.98
2023-03-16T00:04:50.330Z,9.88
2023-03-16T00:07:18.882Z,9.38
2023-03-16T00:09:46.801Z,10.30
2023-03-16T00:12:17.129Z,9.27
2023-03-16T00:14:46.944Z,9.30
2023-03-16T00:17:21.018Z,8.77
2023-03-16T00:19:57.334Z,10.00
2023-03-16T00:22:29.950Z,9.02
2023-03-16T00:24:58.484Z,9.07
2023-03-16T00:27:26.705Z,8.57
2023-03-16T00:29:57.608Z,7.25
2023-03-16T00:32:28.209Z,8.55
2023-03-16T00:34:56.589Z,7.55
2023-03-16T00:37:26.166Z,8.75
2023-03-16T00:39:57.386Z,8.30
2023-03-16T00:42:27.760Z,6.50
2023-03-16T00:44:57.160Z,8.27
2023-03-16T00:47:30.704Z,7.70
2023-03-16T00:49:58.950Z,7.82
2023-03-16T00:52:27.641Z,6.80
2023-03-16T00:54:55.974Z,7.32
2023-03-16T00:57:25.916Z,7.85
2023-03-16T00:59:53.918Z,6.53
2023-03-16T01:02:24.797Z,7.60
2023-03-16T01:04:54.658Z,7.27
2023-03-16T01:07:22.968Z,6.97
2023-03-16T01:09:52.134Z,6.25
2023-03-16T01:12:20.040Z,7.13
2023-03-16T01:14:48.086Z,7.35
2023-03-16T01:17:17.446Z,8.00
2023-03-16T01:19:45.869Z,6.90
2023-03-16T01:22:14.024Z,7.55
2023-03-16T01:24:42.690Z,7.43
2023-03-16T01:27:10.667Z,7.53
2023-03-16T01:29:38.900Z,8.77
2023-03-16T01:32:07.435Z,8.48
2023-03-16T01:34:35.248Z,8.18
2023-03-16T01:37:04.285Z,8.88
2023-03-16T01:39:43.665Z,9.30
2023-03-16T01:42:12.338Z,9.98
2023-03-16T01:44:52.927Z,10.27
2023-03-16T01:47:22.349Z,9.50
2023-03-16T01:49:55.011Z,10.70
2023-03-16T01:52:33.345Z,11.38
2023-03-16T01:55:05.891Z,13.13
2023-03-16T01:57:37.073Z,10.15
2023-03-16T02:00:23.503Z,9.88
2023-03-16T02:03:16.832Z,11.43
2023-03-16T02:06:03.293Z,11.88
2023-03-16T02:08:33.437Z,12.13
2023-03-16T02:11:01.247Z,13.30
2023-03-16T02:13:49.804Z,13.43
2023-03-16T02:16:19.610Z,13.20
2023-03-16T02:18:51.603Z,14.05
2023-03-16T02:21:25.497Z,13.88
2023-03-16T02:23:53.500Z,14.20
2023-03-16T02:26:24.060Z,12.27
2023-03-16T02:29:39.777Z,13.52
2023-03-16T02:32:08.792Z,14.07
2023-03-16T02:34:36.518Z,12.98
2023-03-16T02:37:05.718Z,11.63
2023-03-16T02:39:34.490Z,13.13
2023-03-16T02:42:02.924Z,13.10
2023-03-16T02:44:40.730Z,11.32
2023-03-16T02:47:22.171Z,13.10
2023-03-16T02:49:50.259Z,11.75
2023-03-16T02:52:18.097Z,12.02
2023-03-16T02:54:46.033Z,11.57
2023-03-16T02:57:14.212Z,12.25
2023-03-16T02:59:42.531Z,11.82
2023-03-16T03:02:11.482Z,12.73
2023-03-16T03:04:39.569Z,11.73
2023-03-16T03:07:08.016Z,10.93
2023-03-16T03:09:53.741Z,11.82
2023-03-16T03:12:22.101Z,9.95
2023-03-16T03:14:49.998Z,11.15
2023-03-16T03:17:20.513Z,8.73
2023-03-16T03:19:48.469Z,10.02
2023-03-16T03:22:18.696Z,9.55
2023-03-16T03:24:46.381Z,9.38
2023-03-16T03:27:14.895Z,9.23
2023-03-16T03:29:44.654Z,9.18
2023-03-16T03:32:12.535Z,8.93
2023-03-16T03:34:40.198Z,8.00
2023-03-16T03:37:08.172Z,10.63
2023-03-16T03:39:36.724Z,9.70
2023-03-16T03:42:04.815Z,8.00
2023-03-16T03:44:37.542Z,8.10
2023-03-16T03:47:05.931Z,7.53
2023-03-16T03:49:33.915Z,6.63
2023-03-16T03:52:04.715Z,7.18
2023-03-16T03:54:32.414Z,7.50
2023-03-16T03:57:05.075Z,7.10
2023-03-16T03:59:33.057Z,8.38
2023-03-16T04:02:11.979Z,7.30
2023-03-16T04:04:48.324Z,7.32
2023-03-16T04:07:16.350Z,6.53
2023-03-16T04:09:45.955Z,6.80
2023-03-16T04:12:43.065Z,6.35
2023-03-16T04:15:13.099Z,6.38
2023-03-16T04:17:54.375Z,5.77
2023-03-16T04:20:23.615Z,5.55
2023-03-16T04:22:58.425Z,6.07
2023-03-16T04:25:27.600Z,5.95
2023-03-16T04:27:55.889Z,5.63
2023-03-16T04:30:27.711Z,5.90
2023-03-16T04:33:04.448Z,6.45
2023-03-16T04:35:32.229Z,5.10
2023-03-16T04:38:00.236Z,5.13
2023-03-16T04:40:37.442Z,5.40
2023-03-16T04:43:13.620Z,4.40
2023-03-16T04:45:42.250Z,4.25
2023-03-16T04:48:10.494Z,4.53
2023-03-16T04:50:39.276Z,4.32
2023-03-16T04:53:07.023Z,4.38
2023-03-16T04:55:35.364Z,4.90
2023-03-16T04:58:04.040Z,4.15
2023-03-16T05:03:10.263Z,4.43
2023-03-16T05:05:39.035Z,4.25
2023-03-16T05:08:07.227Z,4.22
2023-03-16T05:10:37.000Z,4.03
2023-03-16T05:13:06.005Z,4.43
2023-03-16T05:15:34.595Z,4.32
2023-03-16T05:18:16.410Z,4.15
2023-03-16T05:20:44.582Z,4.40
2023-03-16T05:23:12.564Z,3.92
2023-03-16T05:25:48.172Z,4.85
2023-03-16T05:28:18.331Z,3.80
2023-03-16T05:30:52.183Z,3.95
2023-03-16T05:33:25.666Z,3.50
2023-03-16T05:36:00.277Z,3.80
2023-03-16T05:38:28.139Z,3.25
2023-03-16T05:41:02.202Z,3.70
2023-03-16T05:43:45.393Z,3.30
2023-03-16T05:46:14.507Z,3.05
2023-03-16T05:48:43.048Z,3.53
2023-03-16T05:51:14.303Z,3.00
2023-03-16T05:53:42.929Z,3.13
2023-03-16T05:56:18.246Z,3.08
2023-03-16T05:58:47.377Z,2.72
2023-03-16T06:01:16.300Z,2.50
2023-03-16T06:03:44.716Z,2.53
2023-03-16T06:06:19.766Z,3.13
2023-03-16T06:09:03.207Z,1.80
2023-03-16T06:11:32.982Z,2.30
2023-03-16T06:14:01.360Z,2.08
2023-03-16T06:16:29.370Z,2.28
2023-03-16T06:18:59.557Z,2.35
2023-03-16T06:21:28.352Z,2.15
2023-03-16T06:24:01.693Z,2.40
2023-03-16T06:26:29.842Z,2.40
2023-03-16T06:28:58.124Z,2.60
2023-03-16T06:31:26.192Z,2.20
2023-03-16T06:33:54.154Z,2.75
2023-03-16T06:36:22.036Z,2.90
2023-03-16T06:38:54.293Z,2.50
2023-03-16T06:41:45.051Z,3.30
2023-03-16T06:44:15.244Z,2.50
2023-03-16T06:46:53.370Z,2.80
2023-03-16T06:49:21.295Z,2.65
2023-03-16T06:51:49.499Z,3.00
2023-03-16T06:54:17.797Z,2.50
2023-03-16T06:56:46.396Z,2.65
2023-03-16T06:59:14.213Z,2.50
2023-03-16T07:01:42.421Z,2.65
2023-03-16T07:04:10.290Z,2.72
2023-03-16T07:06:38.613Z,2.70
2023-03-16T07:09:06.861Z,3.17
2023-03-16T07:11:35.965Z,2.90
2023-03-16T07:14:03.842Z,2.97
2023-03-16T07:16:33.344Z,2.80
2023-03-16T07:19:04.698Z,2.95
2023-03-16T07:21:39.240Z,3.10
2023-03-16T07:24:10.997Z,4.18
2023-03-16T07:26:39.631Z,3.50
2023-03-16T07:29:09.715Z,2.88
2023-03-16T07:31:38.197Z,2.92
2023-03-16T07:34:11.715Z,3.20
2023-03-16T07:36:44.363Z,3.00
2023-03-16T07:39:14.406Z,3.08
2023-03-16T07:41:42.968Z,2.47
2023-03-16T07:44:31.636Z,2.80
2023-03-16T07:47:00.281Z,3.00
2023-03-16T07:49:30.646Z,2.83
2023-03-16T07:52:00.227Z,3.42
2023-03-16T07:54:36.178Z,3.08
2023-03-16T07:57:06.455Z,2.78
2023-03-16T07:59:39.506Z,2.85
2023-03-16T08:02:16.107Z,2.72
2023-03-16T08:04:44.695Z,2.63
2023-03-16T08:07:15.672Z,2.65
2023-03-16T08:09:54.330Z,2.50
2023-03-16T08:12:31.916Z,2.70
2023-03-16T08:15:00.301Z,2.20
2023-03-16T08:17:31.557Z,2.72
2023-03-16T08:20:01.383Z,2.92
2023-03-16T08:22:30.888Z,2.20
2023-03-16T08:24:58.592Z,2.40
2023-03-16T08:27:29.286Z,2.63
2023-03-16T08:30:05.053Z,3.03
2023-03-16T08:32:34.777Z,2.42
2023-03-16T08:35:04.106Z,2.45
2023-03-16T08:37:32.006Z,2.45
2023-03-16T08:40:00.614Z,2.45
2023-03-16T08:42:30.221Z,2.70
2023-03-16T08:45:12.252Z,2.30
2023-03-16T08:47:42.714Z,2.33
2023-03-16T08:50:15.666Z,2.75
2023-03-16T08:55:11.549Z,2.17
2023-03-16T08:57:39.419Z,2.60
2023-03-16T09:00:14.517Z,2.20
2023-03-16T09:02:42.897Z,2.35
2023-03-16T09:05:13.080Z,2.90
2023-03-16T09:07:42.670Z,1.90
2023-03-16T09:10:14.493Z,1.98
2023-03-16T09:12:43.560Z,2.50
2023-03-16T09:15:13.837Z,2.75
2023-03-16T09:17:42.168Z,2.22
2023-03-16T09:20:21.963Z,2.50
2023-03-16T09:22:58.906Z,2.67
2023-03-16T09:25:27.003Z,2.50
2023-03-16T09:27:54.708Z,2.53
2023-03-16T09:30:22.927Z,2.47
2023-03-16T09:32:50.866Z,2.35
2023-03-16T09:35:19.564Z,2.25
2023-03-16T09:38:04.794Z,2.75
2023-03-16T09:40:36.110Z,2.42
2023-03-16T09:43:23.901Z,2.20
2023-03-16T09:45:51.565Z,2.28
2023-03-16T09:48:21.700Z,2.15
2023-03-16T09:50:50.302Z,2.30
2023-03-16T09:53:23.431Z,2.22
2023-03-16T09:55:58.412Z,2.20
2023-03-16T09:58:27.171Z,2.63
2023-03-16T10:01:12.149Z,2.65
2023-03-16T10:04:00.310Z,2.47
2023-03-16T10:06:28.959Z,2.30
2023-03-16T10:09:21.263Z,2.50
2023-03-16T10:11:54.170Z,1.90
2023-03-16T10:14:28.061Z,1.80
2023-03-16T10:17:17.844Z,2.90
2023-03-16T10:20:17.431Z,2.20
2023-03-16T10:22:48.005Z,1.95
2023-03-16T10:25:40.879Z,2.60
2023-03-16T10:28:15.823Z,2.10
2023-03-16T10:30:44.207Z,3.08
2023-03-16T10:33:27.033Z,2.47
2023-03-16T10:36:15.537Z,2.10
2023-03-16T10:38:50.823Z,3.08
2023-03-16T10:41:18.412Z,2.53
2023-03-16T10:43:51.856Z,3.20
2023-03-16T10:46:20.126Z,2.28
2023-03-16T10:49:00.466Z,2.25
2023-03-16T10:51:31.322Z,2.78
2023-03-16T10:54:40.030Z,2.65
2023-03-16T10:57:25.540Z,2.42
2023-03-16T10:59:56.796Z,2.38
2023-03-16T11:02:32.600Z,2.92
2023-03-16T11:05:01.667Z,2.25
2023-03-16T11:07:29.113Z,2.13
2023-03-16T11:09:58.727Z,2.90
2023-03-16T11:12:28.970Z,2.50
2023-03-16T11:15:20.156Z,2.05
2023-03-16T11:17:53.659Z,3.13
2023-03-16T11:20:26.489Z,2.15
2023-03-16T11:22:54.520Z,2.38
2023-03-16T11:25:30.547Z,2.40
2023-03-16T11:28:17.002Z,2.92
2023-03-16T11:30:54.357Z,2.53
2023-03-16T11:33:23.085Z,3.03
2023-03-16T11:36:29.929Z,2.72
2023-03-16T11:39:14.142Z,2.47
2023-03-16T11:41:42.064Z,2.63
2023-03-16T11:44:10.016Z,2.17
2023-03-16T11:47:06.197Z,2.40
2023-03-16T11:50:00.365Z,2.13
2023-03-16T11:52:46.793Z,3.30
2023-03-16T11:55:27.219Z,2.10
2023-03-16T11:58:19.059Z,2.60
2023-03-16T12:01:04.387Z,2.10
2023-03-16T12:03:41.187Z,1.90
2023-03-16T12:06:39.106Z,2.38
2023-03-16T12:09:25.082Z,1.90
2023-03-16T12:11:52.671Z,2.22
2023-03-16T12:14:39.616Z,2.25
2023-03-16T12:17:22.452Z,2.10
2023-03-16T12:19:56.416Z,1.70
2023-03-16T12:22:38.197Z,2.10
2023-03-16T12:27:41.356Z,2.10
2023-03-16T12:30:46.472Z,3.28
2023-03-16T12:33:50.221Z,2.30
2023-03-16T12:36:18.195Z,1.70
2023-03-16T12:39:07.486Z,2.08
2023-03-16T12:41:52.905Z,1.80
2023-03-16T12:44:44.589Z,1.95
2023-03-16T12:48:06.433Z,2.00
2023-03-16T12:50:34.501Z,1.70
2023-03-16T12:53:02.058Z,1.77
2023-03-16T12:55:39.171Z,1.52
2023-03-16T12:58:08.694Z,1.70
2023-03-16T13:00:42.686Z,1.40
2023-03-16T13:03:21.360Z,1.20
2023-03-16T13:06:00.826Z,1.50
2023-03-16T13:08:40.465Z,1.60
2023-03-16T13:11:12.237Z,2.03
2023-03-16T13:14:08.372Z,3.20
2023-03-16T13:16:37.972Z,2.10
2023-03-16T13:19:26.385Z,2.70
2023-03-16T13:22:04.149Z,1.80
2023-03-16T13:24:40.112Z,1.52
2023-03-16T13:27:20.214Z,1.35
2023-03-16T13:29:55.529Z,1.75
2023-03-16T13:32:27.337Z,2.05
2023-03-16T13:34:59.178Z,1.48
2023-03-16T13:37:29.427Z,1.20
2023-03-16T13:40:02.295Z,1.42
2023-03-16T13:42:32.567Z,1.63
2023-03-16T13:45:13.154Z,1.73
2023-03-16T13:47:44.169Z,2.00
2023-03-16T13:50:13.911Z,1.50
2023-03-16T13:52:44.300Z,1.52
2023-03-16T13:55:22.931Z,1.80
2023-03-16T13:57:50.641Z,1.70
2023-03-16T14:00:22.435Z,1.88
2023-03-16T14:02:56.302Z,1.58
2023-03-16T14:05:30.383Z,1.58
2023-03-16T14:08:00.645Z,1.42
2023-03-16T14:10:33.518Z,1.50
2023-03-16T14:13:10.325Z,1.50
2023-03-16T14:15:38.765Z,2.50
2023-03-16T14:18:22.572Z,1.75
2023-03-16T14:20:54.902Z,1.35
2023-03-16T14:23:29.609Z,1.38
2023-03-16T14:25:57.476Z,1.45
2023-03-16T14:28:33.379Z,1.90
2023-03-16T14:31:11.884Z,1.77
2023-03-16T14:33:42.879Z,1.60
2023-03-16T14:36:19.716Z,1.95
2023-03-16T14:38:48.861Z,1.80
2023-03-16T14:41:25.896Z,2.20
2023-03-16T14:44:01.831Z,1.73
2023-03-16T14:46:43.007Z,2.15
2023-03-16T14:49:31.248Z,2.13
2023-03-16T14:52:11.781Z,1.90
2023-03-16T14:54:39.890Z,1.65
2023-03-16T14:57:07.384Z,2.40
2023-03-16T14:59:35.041Z,2.13
2023-03-16T15:02:06.933Z,2.00
2023-03-16T15:04:36.470Z,3.00
2023-03-16T15:07:20.659Z,2.45
2023-03-16T15:09:49.581Z,2.63
2023-03-16T15:12:19.637Z,2.72
2023-03-16T15:15:06.922Z,3.20
2023-03-16T15:17:34.926Z,2.17
2023-03-16T15:20:03.309Z,4.10
2023-03-16T15:22:33.784Z,2.05
2023-03-16T15:25:24.797Z,2.85
2023-03-16T15:27:54.131Z,2.28
2023-03-16T15:30:24.810Z,3.33
2023-03-16T15:32:53.183Z,2.60
2023-03-16T15:35:21.297Z,2.60
2023-03-16T15:37:49.375Z,2.42
2023-03-16T15:40:21.616Z,2.28
2023-03-16T15:42:49.801Z,3.13
2023-03-16T15:45:20.698Z,2.22
2023-03-16T15:47:50.187Z,2.28
2023-03-16T15:50:20.589Z,3.38
2023-03-16T15:53:20.508Z,2.67
2023-03-16T15:56:03.005Z,3.10
2023-03-16T15:58:32.571Z,3.38
2023-03-16T16:01:01.850Z,3.33
2023-03-16T16:03:30.041Z,3.15
2023-03-16T16:05:57.546Z,3.20
2023-03-16T16:08:25.246Z,4.25
2023-03-16T16:10:53.638Z,3.60
2023-03-16T16:13:37.604Z,4.10
2023-03-16T16:16:17.798Z,4.28
2023-03-16T16:18:46.686Z,4.00
2023-03-16T16:21:19.615Z,4.28
2023-03-16T16:23:47.966Z,3.50
2023-03-16T16:26:54.936Z,4.90
2023-03-16T16:29:25.685Z,3.75
2023-03-16T16:31:53.787Z,4.90
2023-03-16T16:34:24.655Z,5.22
2023-03-16T16:36:54.342Z,5.93
2023-03-16T16:39:22.497Z,5.82
2023-03-16T16:41:55.075Z,4.88
2023-03-16T16:44:25.639Z,5.70
2023-03-16T16:46:54.101Z,6.13
2023-03-16T16:49:24.200Z,3.70
2023-03-16T16:51:52.807Z,3.75
2023-03-16T16:54:30.121Z,3.70
2023-03-16T16:56:59.699Z,3.40
2023-03-16T16:59:33.335Z,4.35
2023-03-16T17:02:03.296Z,3.78
2023-03-16T17:04:30.944Z,4.50
2023-03-16T17:07:01.953Z,4.47
2023-03-16T17:09:30.321Z,3.67
2023-03-16T17:12:01.067Z,3.53
2023-03-16T17:14:31.048Z,6.72
2023-03-16T17:17:05.157Z,4.38
2023-03-16T17:19:33.035Z,4.60
2023-03-16T17:22:01.492Z,4.53
2023-03-16T17:24:29.759Z,4.45
2023-03-16T17:27:01.339Z,4.15
2023-03-16T17:29:34.534Z,5.80
2023-03-16T17:32:08.947Z,5.18
2023-03-16T17:34:38.049Z,5.50
2023-03-16T17:37:12.992Z,5.50
2023-03-16T17:39:41.835Z,4.97
2023-03-16T17:42:16.664Z,4.90
2023-03-16T17:44:47.613Z,4.78
2023-03-16T17:47:39.767Z,3.95
2023-03-16T17:50:29.529Z,4.38
2023-03-16T17:52:57.862Z,4.63
2023-03-16T17:55:25.378Z,5.03
2023-03-16T17:57:55.352Z,3.92
2023-03-16T18:00:36.718Z,4.07
2023-03-16T18:03:11.806Z,4.10
2023-03-16T18:05:39.839Z,3.70
2023-03-16T18:08:33.412Z,4.60
2023-03-16T18:11:04.276Z,3.78
2023-03-16T18:13:36.955Z,4.85
2023-03-16T18:16:06.380Z,5.53
2023-03-16T18:18:38.414Z,6.00
2023-03-16T18:21:06.549Z,6.47
2023-03-16T18:23:35.731Z,6.10
2023-03-16T18:26:04.083Z,5.63
2023-03-16T18:28:32.680Z,5.20
2023-03-16T18:31:01.515Z,6.18
2023-03-16T18:33:41.116Z,6.22
2023-03-16T18:36:24.748Z,6.07
2023-03-16T18:38:53.806Z,4.72
2023-03-16T18:41:29.196Z,5.13
2023-03-16T18:43:59.741Z,5.50
2023-03-16T18:46:33.331Z,6.47
2023-03-16T18:49:16.780Z,6.43
2023-03-16T18:51:48.283Z,5.57
2023-03-16T18:54:21.401Z,5.82
2023-03-16T18:56:49.666Z,7.57
2023-03-16T18:59:17.390Z,7.13
2023-03-16T19:01:46.984Z,5.95
2023-03-16T19:04:22.164Z,7.97
2023-03-16T19:06:52.113Z,6.22
2023-03-16T19:09:21.836Z,6.13
2023-03-16T19:11:49.967Z,6.20
2023-03-16T19:14:18.531Z,7.03
2023-03-16T19:16:46.664Z,6.88
2023-03-16T19:19:15.510Z,7.20
2023-03-16T19:21:43.810Z,7.25
2023-03-16T19:24:33.708Z,7.20
2023-03-16T19:27:02.041Z,7.40
2023-03-16T19:29:33.192Z,7.55
2023-03-16T19:32:01.790Z,7.38
2023-03-16T19:34:29.864Z,6.75
2023-03-16T19:36:57.413Z,7.10
2023-03-16T19:39:25.847Z,7.55
2023-03-16T19:41:58.953Z,7.07
2023-03-16T19:44:28.560Z,7.20
2023-03-16T19:46:56.553Z,8.25
2023-03-16T19:49:27.064Z,7.47
2023-03-16T19:51:55.820Z,6.72
2023-03-16T19:54:27.819Z,7.97
2023-03-16T19:56:58.009Z,7.00
2023-03-16T19:59:31.149Z,8.27
2023-03-16T20:01:59.124Z,8.25
2023-03-16T20:04:27.770Z,7.82
2023-03-16T20:06:55.894Z,8.55
2023-03-16T20:09:23.445Z,7.93
2023-03-16T20:11:51.272Z,8.50
2023-03-16T20:14:24.004Z,7.82
2023-03-16T20:16:53.231Z,8.35
2023-03-16T20:19:22.336Z,8.32
2023-03-16T20:21:52.269Z,7.82
2023-03-16T20:24:24.556Z,8.77
2023-03-16T20:26:54.124Z,8.52
2023-03-16T20:29:31.179Z,8.60
2023-03-16T20:31:59.881Z,9.00
2023-03-16T20:34:31.465Z,7.55
2023-03-16T20:37:00.596Z,8.82
2023-03-16T20:39:28.315Z,8.25
2023-03-16T20:41:57.244Z,8.57
2023-03-16T20:44:26.596Z,9.40
2023-03-16T20:46:54.416Z,8.85
2023-03-16T20:49:22.560Z,9.52
2023-03-16T20:51:50.876Z,9.00
2023-03-16T20:54:18.589Z,9.02
2023-03-16T20:56:46.914Z,9.70
2023-03-16T20:59:21.880Z,9.45
2023-03-16T21:01:50.421Z,9.20
2023-03-16T21:04:22.468Z,9.55
2023-03-16T21:06:51.395Z,10.20
2023-03-16T21:09:21.206Z,10.88
2023-03-16T21:11:49.554Z,8.98
2023-03-16T21:14:21.534Z,9.50
2023-03-16T21:16:50.234Z,9.15
2023-03-16T21:19:21.111Z,9.77
2023-03-16T21:21:48.891Z,10.48
2023-03-16T21:24:16.917Z,9.70
2023-03-16T21:26:47.489Z,9.48
2023-03-16T21:29:21.210Z,9.57
2023-03-16T21:31:49.577Z,9.23
2023-03-16T21:34:28.291Z,9.52
2023-03-16T21:36:56.427Z,9.23
2023-03-16T21:39:25.335Z,10.13
2023-03-16T21:41:53.712Z,9.55
2023-03-16T21:44:21.505Z,10.75
2023-03-16T21:46:49.626Z,9.38
2023-03-16T21:49:18.044Z,10.23
2023-03-16T21:51:46.055Z,10.25
2023-03-16T21:54:15.303Z,9.35
2023-03-16T21:56:44.089Z,9.75
2023-03-16T21:59:12.160Z,10.45
2023-03-16T22:01:54.251Z,10.05
2023-03-16T22:04:28.302Z,10.63
2023-03-16T22:06:56.254Z,9.45
2023-03-16T22:09:25.029Z,10.32
2023-03-16T22:11:52.605Z,9.85
2023-03-16T22:14:20.338Z,10.38
2023-03-16T22:16:48.239Z,9.90
2023-03-16T22:19:17.785Z,11.23
2023-03-16T22:21:47.157Z,9.93
2023-03-16T22:24:24.828Z,10.57
2023-03-16T22:26:53.642Z,10.23
2023-03-16T22:29:33.708Z,10.13
2023-03-16T22:32:08.564Z,10.13
2023-03-16T22:34:46.301Z,10.77
2023-03-16T22:37:20.255Z,10.68
2023-03-16T22:39:48.703Z,10.23
2023-03-16T22:42:16.640Z,10.93
2023-03-16T22:44:44.529Z,11.27
2023-03-16T22:47:29.326Z,11.43
2023-03-16T22:49:56.961Z,11.20
2023-03-16T22:52:29.781Z,11.20
2023-03-16T22:55:00.171Z,11.48
2023-03-16T22:57:29.652Z,11.07
2023-03-16T22:59:58.850Z,11.25
2023-03-16T23:02:27.819Z,11.73
2023-03-16T23:04:56.270Z,11.60
2023-03-16T23:07:24.170Z,11.32
2023-03-16T23:09:52.400Z,11.23
2023-03-16T23:12:21.820Z,11.10
2023-03-16T23:14:49.959Z,10.90
2023-03-16T23:17:19.741Z,11.63
2023-03-16T23:19:50.700Z,10.57
2023-03-16T23:22:18.346Z,12.05
2023-03-16T23:24:46.317Z,11.05
2023-03-16T23:27:19.190Z,11.52
2023-03-16T23:29:46.989Z,12.20
2023-03-16T23:32:17.130Z,11.40
2023-03-16T23:34:45.335Z,12.00
2023-03-16T23:37:12.851Z,11.32
2023-03-16T23:39:40.672Z,11.50
2023-03-16T23:42:09.235Z,11.63
2023-03-16T23:44:37.208Z,10.98
2023-03-16T23:47:04.893Z,10.88
2023-03-16T23:49:36.966Z,11.80
2023-03-16T23:52:05.417Z,11.55
2023-03-16T23:54:33.381Z,12.02
2023-03-16T23:57:01.155Z,10.60
2023-03-16T23:59:28.759Z,12.00
